createdAt,value
2022-11-29T00:02:04.171Z,26.92
2022-11-29T00:04:34.168Z,24.70
2022-11-29T00:07:04.007Z,23.20
2022-11-29T00:09:33.838Z,25.98
2022-11-29T00:12:12.963Z,24.25
2022-11-29T00:14:45.867Z,22.25
2022-11-29T00:17:15.949Z,25.60
2022-11-29T00:19:45.876Z,24.67
2022-11-29T00:22:15.709Z,24.52
2022-11-29T00:24:45.763Z,24.52
2022-11-29T00:27:15.787Z,25.80
2022-11-29T00:29:48.221Z,26.10
2022-11-29T00:32:18.057Z,24.90
2022-11-29T00:34:47.929Z,27.42
2022-11-29T00:37:17.831Z,25.98
2022-11-29T00:39:47.667Z,25.50
2022-11-29T00:42:17.593Z,24.83
2022-11-29T00:44:50.022Z,26.15
2022-11-29T00:47:20.024Z,26.90
2022-11-29T00:49:49.859Z,27.27
2022-11-29T00:52:19.787Z,25.38
2022-11-29T00:54:49.661Z,26.25
2022-11-29T00:57:19.522Z,25.33
2022-11-29T00:59:51.981Z,26.23
2022-11-29T01:02:21.879Z,26.85
2022-11-29T01:04:51.715Z,27.48
2022-11-29T01:07:21.611Z,27.58
2022-11-29T01:09:51.487Z,27.17
2022-11-29T01:12:21.338Z,27.38
2022-11-29T01:14:53.787Z,27.20
2022-11-29T01:17:23.643Z,25.35
2022-11-29T01:19:53.541Z,28.02
2022-11-29T01:22:23.451Z,27.05
2022-11-29T01:24:53.363Z,25.70
2022-11-29T01:27:23.217Z,26.80
2022-11-29T01:29:55.672Z,25.05
2022-11-29T01:32:25.633Z,26.17
2022-11-29T01:34:55.499Z,28.23
2022-11-29T01:37:25.342Z,25.92
2022-11-29T01:39:55.256Z,27.02
2022-11-29T01:42:25.207Z,25.60
2022-11-29T01:45:24.631Z,26.02
2022-11-29T01:47:58.176Z,26.58
2022-11-29T01:50:28.407Z,27.08
2022-11-29T01:52:58.389Z,25.98
2022-11-29T01:55:28.529Z,26.77
2022-11-29T01:57:58.719Z,26.35
2022-11-29T02:00:31.207Z,26.35
2022-11-29T02:03:06.839Z,24.65
2022-11-29T02:05:36.875Z,26.52
2022-11-29T02:08:07.178Z,27.45
2022-11-29T02:10:54.375Z,27.23
2022-11-29T02:13:35.909Z,24.92
2022-11-29T02:16:18.936Z,28.25
2022-11-29T02:18:57.366Z,26.38
2022-11-29T02:21:41.227Z,27.52
2022-11-29T02:24:48.903Z,28.20
2022-11-29T02:28:18.742Z,27.13
2022-11-29T02:31:18.478Z,28.25
2022-11-29T02:34:23.330Z,26.23
2022-11-29T02:37:31.260Z,27.23
2022-11-29T02:40:41.360Z,25.98
2022-11-29T02:43:32.750Z,27.67
2022-11-29T02:46:19.930Z,27.70
2022-11-29T02:49:04.916Z,28.90
2022-11-29T02:51:44.238Z,27.95
2022-11-29T02:54:22.793Z,29.02
2022-11-29T02:57:00.845Z,26.63
2022-11-29T02:59:45.940Z,27.13
2022-11-29T03:05:06.362Z,29.23
2022-11-29T03:07:47.852Z,29.02
2022-11-29T03:10:27.722Z,27.10
2022-11-29T03:12:58.586Z,28.63
2022-11-29T03:15:33.439Z,28.58
2022-11-29T03:18:22.840Z,28.88
2022-11-29T03:21:11.209Z,27.55
2022-11-29T03:23:47.012Z,29.55
2022-11-29T03:26:22.171Z,26.30
2022-11-29T03:29:01.162Z,27.25
2022-11-29T03:31:37.303Z,29.30
2022-11-29T03:34:16.279Z,27.33
2022-11-29T03:36:57.457Z,28.52
2022-11-29T03:39:37.886Z,29.88
2022-11-29T03:42:15.461Z,28.00
2022-11-29T03:45:00.174Z,28.67
2022-11-29T03:47:38.266Z,26.58
2022-11-29T03:50:16.081Z,27.60
2022-11-29T03:52:55.343Z,26.98
2022-11-29T03:55:36.285Z,27.00
2022-11-29T03:58:25.254Z,25.75
2022-11-29T04:01:33.342Z,26.67
2022-11-29T04:04:43.384Z,27.80
2022-11-29T04:07:37.509Z,27.65
2022-11-29T04:10:38.426Z,28.20
2022-11-29T04:13:59.683Z,26.65
2022-11-29T04:17:03.229Z,27.85
2022-11-29T04:20:28.916Z,25.55
2022-11-29T04:23:40.318Z,27.13
2022-11-29T04:26:54.158Z,25.50
2022-11-29T04:29:55.462Z,26.05
2022-11-29T04:33:07.675Z,27.35
2022-11-29T04:36:09.469Z,26.35
2022-11-29T04:39:12.181Z,26.10
2022-11-29T04:42:23.974Z,26.00
2022-11-29T04:45:50.626Z,28.27
2022-11-29T04:51:11.011Z,26.60
2022-11-29T04:53:55.319Z,27.92
2022-11-29T04:56:35.681Z,26.80
2022-11-29T04:59:16.291Z,26.40
2022-11-29T05:02:05.709Z,26.17
2022-11-29T05:04:48.357Z,27.92
2022-11-29T05:07:30.523Z,26.30
2022-11-29T05:10:14.065Z,27.58
2022-11-29T05:12:52.798Z,27.98
2022-11-29T05:15:50.947Z,25.55
2022-11-29T05:18:30.205Z,25.85
2022-11-29T05:21:09.679Z,26.17
2022-11-29T05:23:55.347Z,27.52
2022-11-29T05:26:33.566Z,27.33
2022-11-29T05:29:08.816Z,26.90
2022-11-29T05:31:59.300Z,26.75
2022-11-29T05:34:47.448Z,25.98
2022-11-29T05:37:32.347Z,25.80
2022-11-29T05:40:31.102Z,27.52
2022-11-29T05:43:19.525Z,29.05
2022-11-29T05:45:57.816Z,25.30
2022-11-29T05:48:45.056Z,27.08
2022-11-29T05:51:24.246Z,26.67
2022-11-29T05:54:03.917Z,26.10
2022-11-29T05:56:45.571Z,26.40
2022-11-29T05:59:20.996Z,26.98
2022-11-29T06:02:01.598Z,24.45
2022-11-29T06:04:58.667Z,27.13
2022-11-29T06:07:40.589Z,25.88
2022-11-29T06:10:17.788Z,25.77
2022-11-29T06:13:00.154Z,26.38
2022-11-29T06:16:05.118Z,27.05
2022-11-29T06:19:11.241Z,26.97
2022-11-29T06:21:49.129Z,26.33
2022-11-29T06:24:34.473Z,27.83
2022-11-29T06:27:24.732Z,28.13
2022-11-29T06:30:02.203Z,24.70
2022-11-29T06:32:44.054Z,26.75
2022-11-29T06:35:35.658Z,27.02
2022-11-29T06:38:18.959Z,26.42
2022-11-29T06:40:49.823Z,27.58
2022-11-29T06:43:21.121Z,25.08
2022-11-29T06:45:56.459Z,25.75
2022-11-29T06:48:29.622Z,26.67
2022-11-29T06:51:06.665Z,25.73
2022-11-29T06:53:51.899Z,29.85
2022-11-29T06:56:30.660Z,24.73
2022-11-29T06:59:08.148Z,27.20
2022-11-29T07:01:47.562Z,25.15
2022-11-29T07:04:45.437Z,26.58
2022-11-29T07:07:23.046Z,27.67
2022-11-29T07:09:59.902Z,25.55
2022-11-29T07:12:31.053Z,25.73
2022-11-29T07:15:01.707Z,25.08
2022-11-29T07:17:40.461Z,27.92
2022-11-29T07:20:18.703Z,26.30
2022-11-29T07:23:04.824Z,30.00
2022-11-29T07:25:46.464Z,25.15
2022-11-29T07:28:35.019Z,27.75
2022-11-29T07:31:13.274Z,26.50
2022-11-29T07:33:57.352Z,26.33
2022-11-29T07:36:37.526Z,26.60
2022-11-29T07:39:25.910Z,27.92
2022-11-29T07:42:06.177Z,28.80
2022-11-29T07:44:43.022Z,27.58
2022-11-29T07:47:13.042Z,26.08
2022-11-29T07:49:42.888Z,29.02
2022-11-29T07:52:14.491Z,27.58
2022-11-29T07:54:45.090Z,27.85
2022-11-29T07:57:17.802Z,25.77
2022-11-29T07:59:47.855Z,25.60
2022-11-29T08:02:17.808Z,26.88
2022-11-29T08:04:47.878Z,27.83
2022-11-29T08:07:17.912Z,27.88
2022-11-29T08:09:48.009Z,26.27
2022-11-29T08:12:20.553Z,28.52
2022-11-29T08:14:50.617Z,27.83
2022-11-29T08:17:20.465Z,27.75
2022-11-29T08:19:50.383Z,27.30
2022-11-29T08:22:20.350Z,28.17
2022-11-29T08:24:50.198Z,27.55
2022-11-29T08:27:22.679Z,27.20
2022-11-29T08:29:52.555Z,25.88
2022-11-29T08:32:22.485Z,26.25
2022-11-29T08:34:52.316Z,28.50
2022-11-29T08:37:22.198Z,28.05
2022-11-29T08:39:52.068Z,27.88
2022-11-29T08:42:24.493Z,27.10
2022-11-29T08:44:54.355Z,25.63
2022-11-29T08:47:42.454Z,26.75
2022-11-29T08:50:16.888Z,26.23
2022-11-29T08:53:01.442Z,25.52
2022-11-29T08:55:36.131Z,27.25
2022-11-29T09:00:42.401Z,25.83
2022-11-29T09:03:24.920Z,27.77
2022-11-29T09:05:55.629Z,27.15
2022-11-29T09:08:25.558Z,26.55
2022-11-29T09:10:55.451Z,26.85
2022-11-29T09:13:27.914Z,26.42
2022-11-29T09:15:57.789Z,27.27
2022-11-29T09:18:28.779Z,23.80
2022-11-29T09:20:59.457Z,25.67
2022-11-29T09:23:29.440Z,27.75
2022-11-29T09:25:59.341Z,24.25
2022-11-29T09:28:33.304Z,27.92
2022-11-29T09:31:08.793Z,25.80
2022-11-29T09:33:39.852Z,26.40
2022-11-29T09:36:12.728Z,26.90
2022-11-29T09:38:42.992Z,27.27
2022-11-29T09:41:38.098Z,26.60
2022-11-29T09:44:21.518Z,27.17
2022-11-29T09:47:02.957Z,27.58
2022-11-29T09:49:52.417Z,24.85
2022-11-29T09:52:39.561Z,28.10
2022-11-29T09:55:29.464Z,27.30
2022-11-29T09:58:01.769Z,26.67
2022-11-29T10:00:40.299Z,25.83
2022-11-29T10:03:18.059Z,26.15
2022-11-29T10:05:50.927Z,25.98
2022-11-29T10:08:28.451Z,24.75
2022-11-29T10:11:10.202Z,25.25
2022-11-29T10:13:44.226Z,26.08
2022-11-29T10:16:25.321Z,27.00
2022-11-29T10:19:02.780Z,25.55
2022-11-29T10:21:38.167Z,24.48
2022-11-29T10:24:14.853Z,25.38
2022-11-29T10:26:44.982Z,26.35
2022-11-29T10:29:17.335Z,28.08
2022-11-29T10:31:52.885Z,27.27
2022-11-29T10:34:25.765Z,25.58
2022-11-29T10:36:59.534Z,25.00
2022-11-29T10:39:37.305Z,25.98
2022-11-29T10:42:29.222Z,26.30
2022-11-29T10:44:59.927Z,25.42
2022-11-29T10:47:32.807Z,26.10
2022-11-29T10:50:03.624Z,26.00
2022-11-29T10:52:33.837Z,27.48
2022-11-29T10:55:04.919Z,25.30
2022-11-29T10:57:35.388Z,24.83
2022-11-29T11:00:10.775Z,24.73
2022-11-29T11:02:43.662Z,26.75
2022-11-29T11:05:19.434Z,26.70
2022-11-29T11:07:58.813Z,26.25
2022-11-29T11:10:31.662Z,26.15
2022-11-29T11:13:08.115Z,25.35
2022-11-29T11:15:38.854Z,28.42
2022-11-29T11:18:25.516Z,26.80
2022-11-29T11:20:58.751Z,27.92
2022-11-29T11:23:32.537Z,26.38
2022-11-29T11:26:06.366Z,28.35
2022-11-29T11:28:43.138Z,27.57
2022-11-29T11:31:14.513Z,26.67
2022-11-29T11:33:48.751Z,26.38
2022-11-29T11:36:25.929Z,25.63
2022-11-29T11:38:58.609Z,24.92
2022-11-29T11:41:44.938Z,26.42
2022-11-29T11:44:46.784Z,26.83
2022-11-29T11:47:21.445Z,26.85
2022-11-29T11:50:07.562Z,26.65
2022-11-29T11:52:48.856Z,26.30
2022-11-29T11:55:33.414Z,26.38
2022-11-29T11:58:19.662Z,26.65
2022-11-29T12:01:07.912Z,27.13
2022-11-29T12:03:51.214Z,27.00
2022-11-29T12:06:34.969Z,27.25
2022-11-29T12:09:16.572Z,27.58
2022-11-29T12:11:56.378Z,27.95
2022-11-29T12:14:35.765Z,26.75
2022-11-29T12:17:19.623Z,27.15
2022-11-29T12:20:02.240Z,26.77
2022-11-29T12:22:46.699Z,26.65
2022-11-29T12:25:24.983Z,26.23
2022-11-29T12:27:55.175Z,26.30
2022-11-29T12:30:25.218Z,26.80
2022-11-29T12:33:24.446Z,26.10
2022-11-29T12:36:30.686Z,26.17
2022-11-29T12:39:18.703Z,26.75
2022-11-29T12:41:55.748Z,25.65
2022-11-29T12:44:41.098Z,28.60
2022-11-29T12:47:38.590Z,27.02
2022-11-29T12:50:35.053Z,27.13
2022-11-29T12:53:27.503Z,27.05
2022-11-29T12:56:13.747Z,26.52
2022-11-29T12:58:59.433Z,28.73
2022-11-29T13:01:44.864Z,27.08
2022-11-29T13:04:23.559Z,29.25
2022-11-29T13:07:04.210Z,27.10
2022-11-29T13:10:00.972Z,26.08
2022-11-29T13:12:40.293Z,26.92
2022-11-29T13:15:17.846Z,26.50
2022-11-29T13:17:54.738Z,25.83
2022-11-29T13:20:38.481Z,25.95
2022-11-29T13:23:18.733Z,25.30
2022-11-29T13:25:52.230Z,26.73
2022-11-29T13:28:30.528Z,26.20
2022-11-29T13:31:05.852Z,26.48
2022-11-29T13:33:45.181Z,23.65
2022-11-29T13:36:24.286Z,25.63
2022-11-29T13:39:05.623Z,25.50
2022-11-29T13:41:42.817Z,24.88
2022-11-29T13:44:23.749Z,25.42
2022-11-29T13:47:05.970Z,26.23
2022-11-29T13:50:04.874Z,25.80
2022-11-29T13:52:42.897Z,25.90
2022-11-29T13:55:29.344Z,25.85
2022-11-29T13:58:17.496Z,26.98
2022-11-29T14:00:55.005Z,25.55
2022-11-29T14:03:34.168Z,24.45
2022-11-29T14:06:14.907Z,25.27
2022-11-29T14:09:20.261Z,24.98
2022-11-29T14:11:55.537Z,24.25
2022-11-29T14:14:31.367Z,26.83
2022-11-29T14:17:07.728Z,25.65
2022-11-29T14:19:39.592Z,24.95
2022-11-29T14:22:24.609Z,22.92
2022-11-29T14:25:21.660Z,26.15
2022-11-29T14:28:03.679Z,27.23
2022-11-29T14:30:53.874Z,25.52
2022-11-29T14:34:03.997Z,24.63
2022-11-29T14:36:53.398Z,26.83
2022-11-29T14:39:46.899Z,25.10
2022-11-29T14:42:20.290Z,25.27
2022-11-29T14:44:53.775Z,27.15
2022-11-29T14:47:32.652Z,24.27
2022-11-29T14:50:10.521Z,24.88
2022-11-29T14:52:43.121Z,26.23
2022-11-29T14:55:35.799Z,25.40
2022-11-29T14:58:23.043Z,26.55
2022-11-29T15:01:10.341Z,26.75
2022-11-29T15:03:49.888Z,25.25
2022-11-29T15:06:38.217Z,25.48
2022-11-29T15:09:22.399Z,24.08
2022-11-29T15:11:56.872Z,26.30
2022-11-29T15:14:39.206Z,27.33
2022-11-29T15:17:22.884Z,25.75
2022-11-29T15:20:09.445Z,26.85
2022-11-29T15:22:52.293Z,27.77
2022-11-29T15:25:26.011Z,28.02
2022-11-29T15:27:57.361Z,27.00
2022-11-29T15:30:34.512Z,27.38
2022-11-29T15:33:08.338Z,26.52
2022-11-29T15:35:39.694Z,28.05
2022-11-29T15:38:20.342Z,28.00
2022-11-29T15:40:55.290Z,26.23
2022-11-29T15:43:30.426Z,28.70
2022-11-29T15:46:02.048Z,29.85
2022-11-29T15:48:34.251Z,29.25
2022-11-29T15:51:13.010Z,26.48
2022-11-29T15:53:53.975Z,28.00
2022-11-29T15:56:40.215Z,29.25
2022-11-29T15:59:30.879Z,28.77
2022-11-29T16:02:04.752Z,31.80
2022-11-29T16:04:35.079Z,29.97
2022-11-29T16:07:07.570Z,27.63
2022-11-29T16:09:44.688Z,31.85
2022-11-29T16:12:19.006Z,29.23
2022-11-29T16:14:54.122Z,31.23
2022-11-29T16:17:24.839Z,31.20
2022-11-29T16:19:55.000Z,31.65
2022-11-29T16:22:26.793Z,30.85
2022-11-29T16:25:07.452Z,29.35
2022-11-29T16:27:39.246Z,32.58
2022-11-29T16:30:19.627Z,30.90
2022-11-29T16:32:55.694Z,30.23
2022-11-29T16:35:29.013Z,30.40
2022-11-29T16:38:00.232Z,31.35
2022-11-29T16:40:35.489Z,28.88
2022-11-29T16:43:25.236Z,30.40
2022-11-29T16:46:36.488Z,29.55
2022-11-29T16:49:37.802Z,30.90
2022-11-29T16:52:27.355Z,27.83
2022-11-29T16:54:57.201Z,30.08
2022-11-29T16:57:31.261Z,29.85
2022-11-29T17:00:01.263Z,31.02
2022-11-29T17:02:32.598Z,29.30
2022-11-29T17:05:02.523Z,32.15
2022-11-29T17:07:35.641Z,29.83
2022-11-29T17:10:08.597Z,31.63
2022-11-29T17:12:46.337Z,31.08
2022-11-29T17:15:17.989Z,30.88
2022-11-29T17:17:48.010Z,31.52
2022-11-29T17:20:18.279Z,33.28
2022-11-29T17:22:48.119Z,32.53
2022-11-29T17:25:18.216Z,30.95
2022-11-29T17:27:50.655Z,30.70
2022-11-29T17:30:21.099Z,29.73
2022-11-29T17:32:50.935Z,29.00
2022-11-29T17:35:20.827Z,30.25
2022-11-29T17:37:50.699Z,29.88
2022-11-29T17:40:21.317Z,32.38
2022-11-29T17:42:54.536Z,30.45
2022-11-29T17:45:24.643Z,32.78
2022-11-29T17:47:54.470Z,31.30
2022-11-29T17:50:24.462Z,31.85
2022-11-29T17:52:54.365Z,30.42
2022-11-29T17:55:26.979Z,29.23
2022-11-29T17:58:01.966Z,29.45
2022-11-29T18:00:31.801Z,31.30
2022-11-29T18:03:01.654Z,29.13
2022-11-29T18:05:34.736Z,29.70
2022-11-29T18:08:05.887Z,31.30
2022-11-29T18:10:36.340Z,30.83
2022-11-29T18:13:08.767Z,30.27
2022-11-29T18:15:38.586Z,32.08
2022-11-29T18:18:08.728Z,30.25
2022-11-29T18:20:38.579Z,31.55
2022-11-29T18:23:08.524Z,29.45
2022-11-29T18:25:39.854Z,29.42
2022-11-29T18:28:13.966Z,30.52
2022-11-29T18:30:43.812Z,30.85
2022-11-29T18:33:13.667Z,29.23
2022-11-29T18:35:43.517Z,31.70
2022-11-29T18:38:15.563Z,30.30
2022-11-29T18:40:47.739Z,31.55
2022-11-29T18:43:21.454Z,29.88
2022-11-29T18:45:51.368Z,30.25
2022-11-29T18:48:21.242Z,30.80
2022-11-29T18:50:51.122Z,32.45
2022-11-29T18:53:20.948Z,30.33
2022-11-29T18:55:50.789Z,30.92
2022-11-29T18:58:23.188Z,32.72
2022-11-29T19:00:53.253Z,32.22
2022-11-29T19:03:23.196Z,30.55
2022-11-29T19:05:54.624Z,30.83
2022-11-29T19:08:25.560Z,31.08
2022-11-29T19:10:55.411Z,31.40
2022-11-29T19:13:27.825Z,29.77
2022-11-29T19:15:58.173Z,29.90
2022-11-29T19:18:28.192Z,30.65
2022-11-29T19:21:06.646Z,30.30
2022-11-29T19:23:36.922Z,31.00
2022-11-29T19:26:07.555Z,32.97
2022-11-29T19:28:42.971Z,31.33
2022-11-29T19:31:15.116Z,31.30
2022-11-29T19:33:48.013Z,32.67
2022-11-29T19:36:20.491Z,33.20
2022-11-29T19:38:53.661Z,32.92
2022-11-29T19:41:26.887Z,34.53
2022-11-29T19:44:01.041Z,31.92
2022-11-29T19:46:34.718Z,32.70
2022-11-29T19:49:06.426Z,32.70
2022-11-29T19:51:37.076Z,33.00
2022-11-29T19:54:09.936Z,32.95
2022-11-29T19:56:39.845Z,34.45
2022-11-29T19:59:12.465Z,34.03
2022-11-29T20:01:43.257Z,32.85
2022-11-29T20:04:16.868Z,34.33
2022-11-29T20:06:47.576Z,34.20
2022-11-29T20:09:18.486Z,33.67
2022-11-29T20:11:48.363Z,27.98
2022-11-29T20:14:21.302Z,34.15
2022-11-29T20:16:51.307Z,32.65
2022-11-29T20:19:21.151Z,32.67
2022-11-29T20:21:51.850Z,34.53
2022-11-29T20:24:22.095Z,32.80
2022-11-29T20:26:52.677Z,35.70
2022-11-29T20:29:30.422Z,31.75
2022-11-29T20:32:00.262Z,34.35
2022-11-29T20:34:30.565Z,33.08
2022-11-29T20:37:30.274Z,33.90
2022-11-29T20:40:05.030Z,34.03
2022-11-29T20:45:32.050Z,35.67
2022-11-29T20:48:11.284Z,37.10
2022-11-29T20:50:42.131Z,33.85
2022-11-29T20:53:30.266Z,35.90
2022-11-29T20:56:00.413Z,33.60
2022-11-29T20:58:30.452Z,34.75
2022-11-29T21:01:03.445Z,33.10
2022-11-29T21:03:33.847Z,33.30
2022-11-29T21:06:06.118Z,34.70
2022-11-29T21:08:36.951Z,36.33
2022-11-29T21:11:10.270Z,36.97
2022-11-29T21:13:41.331Z,35.25
2022-11-29T21:16:16.163Z,35.95
2022-11-29T21:18:47.258Z,36.90
2022-11-29T21:21:26.829Z,37.47
2022-11-29T21:24:06.863Z,37.45
2022-11-29T21:26:41.935Z,33.47
2022-11-29T21:29:21.012Z,36.08
2022-11-29T21:31:57.007Z,37.60
2022-11-29T21:34:26.961Z,37.15
2022-11-29T21:37:00.075Z,35.42
2022-11-29T21:39:35.143Z,36.10
2022-11-29T21:42:05.537Z,33.80
2022-11-29T21:44:35.592Z,38.30
2022-11-29T21:47:08.450Z,34.95
2022-11-29T21:49:38.443Z,37.13
2022-11-29T21:52:08.809Z,36.63
2022-11-29T21:54:38.711Z,37.90
2022-11-29T21:57:08.575Z,35.50
2022-11-29T21:59:38.440Z,35.30
2022-11-29T22:02:11.087Z,37.67
2022-11-29T22:04:41.105Z,35.75
2022-11-29T22:07:12.138Z,35.20
2022-11-29T22:09:42.239Z,35.85
2022-11-29T22:12:32.572Z,36.85
2022-11-29T22:15:02.124Z,33.55
2022-11-29T22:17:34.767Z,36.92
2022-11-29T22:20:04.594Z,36.25
2022-11-29T22:22:34.433Z,35.63
2022-11-29T22:25:04.267Z,36.03
2022-11-29T22:27:34.151Z,38.53
2022-11-29T22:30:03.984Z,35.53
2022-11-29T22:32:36.625Z,34.58
2022-11-29T22:35:06.929Z,36.72
2022-11-29T22:37:36.780Z,36.22
2022-11-29T22:40:08.500Z,35.20
2022-11-29T22:42:38.576Z,37.30
2022-11-29T22:45:09.848Z,34.70
2022-11-29T22:47:42.295Z,35.65
2022-11-29T22:50:14.027Z,36.40
2022-11-29T22:52:43.886Z,35.53
2022-11-29T22:55:13.750Z,33.13
2022-11-29T22:57:43.573Z,34.95
2022-11-29T23:00:16.035Z,34.95
2022-11-29T23:02:48.468Z,36.78
2022-11-29T23:05:18.506Z,36.03
2022-11-29T23:07:48.631Z,33.97
2022-11-29T23:10:18.826Z,34.90
2022-11-29T23:12:48.666Z,36.00
2022-11-29T23:15:18.705Z,36.25
2022-11-29T23:17:51.153Z,36.47
2022-11-29T23:20:21.274Z,35.20
2022-11-29T23:22:51.143Z,36.13
2022-11-29T23:25:21.110Z,37.05
2022-11-29T23:27:51.014Z,36.08
2022-11-29T23:30:21.070Z,35.42
2022-11-29T23:32:53.516Z,36.47
2022-11-29T23:35:23.364Z,35.35
2022-11-29T23:37:53.225Z,37.40
2022-11-29T23:40:23.051Z,37.78
2022-11-29T23:42:54.152Z,37.45
2022-11-29T23:45:24.590Z,37.72
2022-11-29T23:47:57.076Z,38.20
2022-11-29T23:50:27.302Z,37.70
2022-11-29T23:52:57.726Z,36.83
2022-11-29T23:55:28.154Z,36.25
2022-11-29T23:57:58.072Z,38.13
